Time;durP1;ratioP1;P1;durP2;ratioP2;P2;SDS_P1;SDS_P2;PMS_P1;PMS_P2;Temp;Humidity;BMP_temperature;BMP_pressure;BME280_temperature;BME280_humidity;BME280_pressure;Samples;Min_cycle;Max_cycle;Signal;HPM_P1;HPM_P2
2024/03/07 00:02:18;;;;;;;;;;;;;;;;;;5054272;28;20110;-63
2024/03/07 00:04:44;;;;;;;;;;;;;;;;;;5065863;28;20007;-63
2024/03/07 00:07:09;;;;;;;;;;;;;;;;;;5068056;28;19920;-63
2024/03/07 00:09:35;;;;;;;;;;;;;;;;;;5067405;28;19999;-61
2024/03/07 00:12:01;;;;;;;;;;;;;;;;;;5067663;28;19912;-62
2024/03/07 00:14:27;;;;;;;;;;;;;;;;;;5077052;28;19940;-61
2024/03/07 00:16:53;;;;;;;;;;;;;;;;;;5066309;28;19998;-61
2024/03/07 00:19:19;;;;;;;;;;;;;;;;;;5066102;28;19996;-62
2024/03/07 00:21:45;;;;;;;;;;;;;;;;;;5077202;28;19903;-61
2024/03/07 00:24:11;;;;;;;;;;;;;;;;;;5068019;28;19962;-62
2024/03/07 00:26:36;;;;;;;;;;;;;;;;;;5066556;28;20333;-59
2024/03/07 00:29:02;;;;;;;;;;;;;;;;;;5072073;28;19919;-60
2024/03/07 00:31:30;;;;;;;;;;;;;;;;;;5061992;28;19924;-61
2024/03/07 00:33:56;;;;;;;;;;;;;;;;;;5066808;28;19920;-61
2024/03/07 00:36:22;;;;;;;;;;;;;;;;;;5068083;28;19917;-62
2024/03/07 00:38:48;;;;;;;;;;;;;;;;;;5062814;28;20367;-62
2024/03/07 00:41:15;;;;;;;;;;;;;;;;;;5073729;28;19908;-63
2024/03/07 00:43:41;;;;;;;;;;;;;;;;;;5068038;28;19912;-63
2024/03/07 00:46:07;;;;;;;;;;;;;;;;;;5072383;28;19908;-63
2024/03/07 00:48:33;;;;;;;;;;;;;;;;;;5064041;28;19909;-62
2024/03/07 00:50:59;;;;;;;;;;;;;;;;;;5071901;28;19908;-61
2024/03/07 00:53:25;;;;;;;;;;;;;;;;;;5062375;28;19909;-59
2024/03/07 00:55:51;;;;;;;;;;;;;;;;;;5067872;28;19908;-62
2024/03/07 00:58:17;;;;;;;;;;;;;;;;;;5067913;28;19923;-62
2024/03/07 01:00:43;;;;;;;;;;;;;;;;;;5068869;28;20052;-62
2024/03/07 01:03:10;;;;;;;;;;;;;;;;;;5064540;28;20282;-62
2024/03/07 01:05:36;;;;;;;;;;;;;;;;;;5068067;28;19916;-62
2024/03/07 01:08:02;;;;;;;;;;;;;;;;;;5062930;28;19999;-62
2024/03/07 01:10:28;;;;;;;;;;;;;;;;;;5071083;28;19912;-62
2024/03/07 01:12:57;;;;;;;;;;;;;;;;;;5070208;28;19973;-62
2024/03/07 01:15:23;;;;;;;;;;;;;;;;;;5070006;28;19908;-63
2024/03/07 01:17:49;;;;;;;;;;;;;;;;;;5067633;28;19935;-62
2024/03/07 01:20:15;;;;;;;;;;;;;;;;;;5065667;28;19919;-61
2024/03/07 01:22:41;;;;;;;;;;;;;;;;;;5062541;28;20329;-60
2024/03/07 01:25:06;;;;;;;;;;;;;;;;;;5067653;28;19908;-60
2024/03/07 01:27:32;;;;;;;;;;;;;;;;;;5064568;28;19912;-61
2024/03/07 01:29:58;;;;;;;;;;;;;;;;;;5051411;28;19916;-62
2024/03/07 01:32:24;;;;;;;;;;;;;;;;;;5068390;28;19974;-61
2024/03/07 01:34:50;;;;;;;;;;;;;;;;;;5064992;28;19909;-61
2024/03/07 01:37:16;;;;;;;;;;;;;;;;;;5059769;28;20397;-63
2024/03/07 01:39:42;;;;;;;;;;;;;;;;;;5050705;28;20145;-61
2024/03/07 01:42:08;;;;;;;;;;;;;;;;;;5066704;28;20443;-61
2024/03/07 01:44:34;;;;;;;;;;;;;;;;;;5066443;28;19908;-63
2024/03/07 01:47:03;;;;;;;;;;;;;;;;;;5071273;28;20370;-60
2024/03/07 01:49:29;;;;;;;;;;;;;;;;;;5062844;28;19959;-61
2024/03/07 01:51:55;;;;;;;;;;;;;;;;;;5068945;28;20005;-61
2024/03/07 01:54:21;;;;;;;;;;;;;;;;;;5063901;28;19924;-62
2024/03/07 01:56:46;;;;;;;;;;;;;;;;;;5066733;28;19908;-61
2024/03/07 01:59:12;;;;;;;;;;;;;;;;;;5070045;28;19920;-63
2024/03/07 02:01:38;;;;;;;;;;;;;;;;;;5066742;28;20003;-62
2024/03/07 02:04:04;;;;;;;;;;;;;;;;;;5063287;28;19909;-60
2024/03/07 02:06:30;;;;;;;;;;;;;;;;;;5065781;28;20303;-61
2024/03/07 02:08:56;;;;;;;;;;;;;;;;;;5051086;28;19928;-62
2024/03/07 02:11:23;;;;;;;;;;;;;;;;;;5062925;28;19912;-62
2024/03/07 02:13:49;;;;;;;;;;;;;;;;;;5068355;28;19959;-63
2024/03/07 02:16:15;;;;;;;;;;;;;;;;;;5069011;28;19955;-62
2024/03/07 02:18:41;;;;;;;;;;;;;;;;;;5065482;28;20378;-62
2024/03/07 02:21:07;;;;;;;;;;;;;;;;;;5056068;28;19955;-63
2024/03/07 02:23:32;;;;;;;;;;;;;;;;;;5056343;28;19905;-62
2024/03/07 02:25:59;;;;;;;;;;;;;;;;;;5060025;28;19991;-63
2024/03/07 02:28:24;;;;;;;;;;;;;;;;;;5056236;28;20317;-61
2024/03/07 02:30:51;;;;;;;;;;;;;;;;;;5064697;28;19908;-62
2024/03/07 02:33:17;;;;;;;;;;;;;;;;;;5061499;28;19908;-62
2024/03/07 02:35:42;;;;;;;;;;;;;;;;;;5064388;28;20393;-60
2024/03/07 02:38:08;;;;;;;;;;;;;;;;;;5057266;28;19973;-62
2024/03/07 02:40:34;;;;;;;;;;;;;;;;;;5058886;28;20002;-62
2024/03/07 02:43:00;;;;;;;;;;;;;;;;;;5060362;28;19964;-63
2024/03/07 02:45:26;;;;;;;;;;;;;;;;;;5061337;28;20371;-63
2024/03/07 02:47:53;;;;;;;;;;;;;;;;;;5067710;28;20322;-62
2024/03/07 02:50:20;;;;;;;;;;;;;;;;;;5064606;28;20386;-62
2024/03/07 02:52:46;;;;;;;;;;;;;;;;;;5062830;28;20301;-62
2024/03/07 02:55:13;;;;;;;;;;;;;;;;;;5065132;28;19959;-61
2024/03/07 02:57:39;;;;;;;;;;;;;;;;;;5060939;28;20358;-62
2024/03/07 03:00:13;;;;;;;;;;;;;;;;;;5069877;28;19919;-62
2024/03/07 03:02:39;;;;;;;;;;;;;;;;;;5068250;28;20392;-62
2024/03/07 03:05:07;;;;;;;;;;;;;;;;;;5069209;28;19999;-63
2024/03/07 03:07:33;;;;;;;;;;;;;;;;;;5067216;28;19909;-62
2024/03/07 03:09:59;;;;;;;;;;;;;;;;;;5064253;28;19970;-61
2024/03/07 03:12:25;;;;;;;;;;;;;;;;;;5061633;28;19915;-63
2024/03/07 03:14:53;;;;;;;;;;;;;;;;;;5060494;28;20373;-62
2024/03/07 03:17:19;;;;;;;;;;;;;;;;;;5068770;28;20831;-63
2024/03/07 03:19:49;;;;;;;;;;;;;;;;;;5064102;28;19912;-63
2024/03/07 03:22:15;;;;;;;;;;;;;;;;;;5068224;28;19908;-61
2024/03/07 03:24:41;;;;;;;;;;;;;;;;;;5049899;28;19909;-63
2024/03/07 03:27:08;;;;;;;;;;;;;;;;;;5064848;28;19987;-63
2024/03/07 03:29:34;;;;;;;;;;;;;;;;;;5061956;28;19915;-63
2024/03/07 03:31:59;;;;;;;;;;;;;;;;;;5063903;28;19920;-63
2024/03/07 03:34:26;;;;;;;;;;;;;;;;;;5062104;28;19908;-63
2024/03/07 03:36:52;;;;;;;;;;;;;;;;;;5061547;28;19909;-63
2024/03/07 03:39:20;;;;;;;;;;;;;;;;;;5065918;28;19935;-63
2024/03/07 03:41:46;;;;;;;;;;;;;;;;;;5066441;28;19952;-63
2024/03/07 03:44:12;;;;;;;;;;;;;;;;;;5077027;28;20496;-61
2024/03/07 03:46:38;;;;;;;;;;;;;;;;;;5068377;28;19916;-63
2024/03/07 03:49:06;;;;;;;;;;;;;;;;;;5069645;28;19908;-63
2024/03/07 03:51:31;;;;;;;;;;;;;;;;;;5069541;28;19908;-63
2024/03/07 03:53:57;;;;;;;;;;;;;;;;;;5064826;28;19908;-62
2024/03/07 03:56:24;;;;;;;;;;;;;;;;;;5068172;28;19962;-62
2024/03/07 03:58:50;;;;;;;;;;;;;;;;;;5070500;28;19935;-62
2024/03/07 04:01:16;;;;;;;;;;;;;;;;;;5074429;28;19913;-63
2024/03/07 04:03:42;;;;;;;;;;;;;;;;;;5072227;28;19995;-63
2024/03/07 04:06:08;;;;;;;;;;;;;;;;;;5067257;28;19908;-63
2024/03/07 04:08:36;;;;;;;;;;;;;;;;;;5066373;28;19909;-62
2024/03/07 04:11:02;;;;;;;;;;;;;;;;;;5066380;28;19908;-63
2024/03/07 04:13:28;;;;;;;;;;;;;;;;;;5064798;28;19923;-59
2024/03/07 04:15:54;;;;;;;;;;;;;;;;;;5062673;28;19947;-62
2024/03/07 04:18:20;;;;;;;;;;;;;;;;;;5068873;28;20011;-60
2024/03/07 04:20:45;;;;;;;;;;;;;;;;;;5067688;28;19962;-61
2024/03/07 04:23:11;;;;;;;;;;;;;;;;;;5066777;28;19908;-63
2024/03/07 04:25:37;;;;;;;;;;;;;;;;;;5068609;28;19908;-63
2024/03/07 04:28:04;;;;;;;;;;;;;;;;;;5070390;28;19991;-63
2024/03/07 04:30:30;;;;;;;;;;;;;;;;;;5070555;28;19995;-63
2024/03/07 04:32:58;;;;;;;;;;;;;;;;;;5070990;28;19955;-62
2024/03/07 04:35:24;;;;;;;;;;;;;;;;;;5069960;28;20266;-61
2024/03/07 04:37:50;;;;;;;;;;;;;;;;;;5066399;28;19915;-62
2024/03/07 04:40:16;;;;;;;;;;;;;;;;;;5067899;28;20011;-63
2024/03/07 04:42:42;;;;;;;;;;;;;;;;;;5068658;28;20484;-63
2024/03/07 04:45:10;;;;;;;;;;;;;;;;;;5071019;28;20374;-62
2024/03/07 04:47:36;;;;;;;;;;;;;;;;;;5069237;28;19912;-62
2024/03/07 04:50:02;;;;;;;;;;;;;;;;;;5071481;28;19927;-62
2024/03/07 04:52:28;;;;;;;;;;;;;;;;;;5066326;28;19999;-63
2024/03/07 04:54:54;;;;;;;;;;;;;;;;;;5070998;28;19908;-63
2024/03/07 04:57:20;;;;;;;;;;;;;;;;;;5066281;28;19963;-62
2024/03/07 04:59:46;;;;;;;;;;;;;;;;;;5070029;28;19978;-62
2024/03/07 05:02:12;;;;;;;;;;;;;;;;;;5075192;28;19915;-62
2024/03/07 05:04:38;;;;;;;;;;;;;;;;;;5067223;28;19951;-62
2024/03/07 05:07:04;;;;;;;;;;;;;;;;;;5069663;28;19908;-62
2024/03/07 05:09:30;;;;;;;;;;;;;;;;;;5071369;28;20427;-62
2024/03/07 05:11:57;;;;;;;;;;;;;;;;;;5070349;28;20002;-63
2024/03/07 05:14:25;;;;;;;;;;;;;;;;;;5070368;28;20328;-62
2024/03/07 05:17:08;;;;;;;;;;;;;;;;;;5064177;28;19909;-61
2024/03/07 05:19:34;;;;;;;;;;;;;;;;;;5068108;28;19973;-62
2024/03/07 05:22:00;;;;;;;;;;;;;;;;;;5066938;28;19920;-61
2024/03/07 05:24:25;;;;;;;;;;;;;;;;;;5065500;28;19993;-60
2024/03/07 05:26:52;;;;;;;;;;;;;;;;;;5074010;28;19909;-61
2024/03/07 05:29:18;;;;;;;;;;;;;;;;;;5074483;28;19959;-61
2024/03/07 05:31:46;;;;;;;;;;;;;;;;;;5069920;28;20057;-62
2024/03/07 05:34:12;;;;;;;;;;;;;;;;;;5063929;28;19920;-63
2024/03/07 05:36:44;;;;;;;;;;;;;;;;;;5064092;28;20479;-62
2024/03/07 05:39:10;;;;;;;;;;;;;;;;;;5067401;28;19923;-63
2024/03/07 05:41:36;;;;;;;;;;;;;;;;;;5074203;28;20409;-62
2024/03/07 05:44:02;;;;;;;;;;;;;;;;;;5068878;28;20031;-62
2024/03/07 05:46:28;;;;;;;;;;;;;;;;;;5067206;28;20402;-62
2024/03/07 05:48:56;;;;;;;;;;;;;;;;;;5064202;28;19915;-61
2024/03/07 05:51:22;;;;;;;;;;;;;;;;;;5066492;28;20362;-63
2024/03/07 05:53:47;;;;;;;;;;;;;;;;;;5063098;28;19928;-63
2024/03/07 05:56:14;;;;;;;;;;;;;;;;;;5076961;28;19908;-61
2024/03/07 05:58:40;;;;;;;;;;;;;;;;;;5068043;28;20285;-62
2024/03/07 06:01:08;;;;;;;;;;;;;;;;;;5066420;28;19908;-62
2024/03/07 06:03:33;;;;;;;;;;;;;;;;;;5065432;28;19923;-61
2024/03/07 06:05:59;;;;;;;;;;;;;;;;;;5062264;28;19916;-63
2024/03/07 06:08:25;;;;;;;;;;;;;;;;;;5068933;28;20003;-63
2024/03/07 06:10:51;;;;;;;;;;;;;;;;;;5066116;28;20262;-62
2024/03/07 06:13:17;;;;;;;;;;;;;;;;;;5066872;28;19999;-62
2024/03/07 06:15:43;;;;;;;;;;;;;;;;;;5065914;28;19915;-62
2024/03/07 06:18:10;;;;;;;;;;;;;;;;;;5068212;28;19913;-63
2024/03/07 06:20:37;;;;;;;;;;;;;;;;;;5062690;28;19934;-61
2024/03/07 06:23:05;;;;;;;;;;;;;;;;;;5069037;28;19909;-60
2024/03/07 06:25:37;;;;;;;;;;;;;;;;;;5070440;28;19908;-57
2024/03/07 06:28:09;;;;;;;;;;;;;;;;;;5066117;28;20007;-59
2024/03/07 06:30:35;;;;;;;;;;;;;;;;;;5071890;28;19915;-60
2024/03/07 06:33:01;;;;;;;;;;;;;;;;;;5060988;28;19955;-58
2024/03/07 06:35:27;;;;;;;;;;;;;;;;;;5065570;28;19962;-54
2024/03/07 06:37:53;;;;;;;;;;;;;;;;;;5066557;28;19912;-59
2024/03/07 06:40:22;;;;;;;;;;;;;;;;;;5067311;28;20003;-57
2024/03/07 06:42:48;;;;;;;;;;;;;;;;;;5065724;28;19908;-59
2024/03/07 06:45:13;;;;;;;;;;;;;;;;;;5059220;28;19962;-58
2024/03/07 06:47:39;;;;;;;;;;;;;;;;;;5065197;28;19912;-58
2024/03/07 06:50:08;;;;;;;;;;;;;;;;;;5068471;28;20361;-58
2024/03/07 06:52:35;;;;;;;;;;;;;;;;;;5045446;28;20587;-60
2024/03/07 06:55:00;;;;;;;;;;;;;;;;;;5060371;28;19931;-59
2024/03/07 06:57:27;;;;;;;;;;;;;;;;;;5069927;28;19908;-60
2024/03/07 06:59:55;;;;;;;;;;;;;;;;;;5066887;28;19948;-59
2024/03/07 07:02:20;;;;;;;;;;;;;;;;;;5066276;28;19912;-60
2024/03/07 07:04:47;;;;;;;;;;;;;;;;;;5064347;28;20502;-59
2024/03/07 07:07:13;;;;;;;;;;;;;;;;;;5066538;28;19914;-58
2024/03/07 07:09:39;;;;;;;;;;;;;;;;;;5066321;28;19919;-57
2024/03/07 07:12:05;;;;;;;;;;;;;;;;;;5068821;28;19986;-60
2024/03/07 07:14:31;;;;;;;;;;;;;;;;;;5059653;28;19905;-60
2024/03/07 07:16:58;;;;;;;;;;;;;;;;;;5066812;28;19915;-61
2024/03/07 07:19:24;;;;;;;;;;;;;;;;;;5073914;28;20369;-60
2024/03/07 07:21:53;;;;;;;;;;;;;;;;;;5075339;28;19990;-59
2024/03/07 07:24:19;;;;;;;;;;;;;;;;;;5069322;28;19971;-59
2024/03/07 07:26:45;;;;;;;;;;;;;;;;;;5062240;28;19909;-60
2024/03/07 07:29:11;;;;;;;;;;;;;;;;;;5072633;28;19919;-58
2024/03/07 07:31:37;;;;;;;;;;;;;;;;;;5073933;28;19912;-60
2024/03/07 07:34:04;;;;;;;;;;;;;;;;;;5069633;28;19904;-59
2024/03/07 07:36:30;;;;;;;;;;;;;;;;;;5068202;28;19915;-61
2024/03/07 07:38:55;;;;;;;;;;;;;;;;;;5067468;28;19916;-61
2024/03/07 07:41:21;;;;;;;;;;;;;;;;;;5069064;28;19991;-60
2024/03/07 07:43:47;;;;;;;;;;;;;;;;;;5064647;28;20334;-60
2024/03/07 07:46:16;;;;;;;;;;;;;;;;;;5068263;28;19920;-57
2024/03/07 07:48:41;;;;;;;;;;;;;;;;;;5069412;28;19963;-60
2024/03/07 07:51:07;;;;;;;;;;;;;;;;;;5065280;28;19943;-61
2024/03/07 07:53:33;;;;;;;;;;;;;;;;;;5067991;28;19916;-60
2024/03/07 07:55:59;;;;;;;;;;;;;;;;;;5067254;28;20429;-60
2024/03/07 07:58:25;;;;;;;;;;;;;;;;;;5063070;28;19908;-60
2024/03/07 08:00:51;;;;;;;;;;;;;;;;;;5071925;28;20333;-60
2024/03/07 08:03:17;;;;;;;;;;;;;;;;;;5070058;28;19907;-59
2024/03/07 08:05:44;;;;;;;;;;;;;;;;;;5068281;28;19999;-61
2024/03/07 08:08:13;;;;;;;;;;;;;;;;;;5068427;28;19971;-58
2024/03/07 08:10:39;;;;;;;;;;;;;;;;;;5071378;28;19989;-59
2024/03/07 08:13:10;;;;;;;;;;;;;;;;;;5068035;28;19978;-61
2024/03/07 08:15:36;;;;;;;;;;;;;;;;;;5075302;28;19977;-60
2024/03/07 08:18:01;;;;;;;;;;;;;;;;;;5068106;28;19939;-60
2024/03/07 08:20:27;;;;;;;;;;;;;;;;;;5074094;28;20445;-60
2024/03/07 08:22:54;;;;;;;;;;;;;;;;;;5071720;28;19935;-58
2024/03/07 08:25:19;;;;;;;;;;;;;;;;;;5069486;28;19919;-57
2024/03/07 08:27:48;;;;;;;;;;;;;;;;;;5071653;28;19912;-58
2024/03/07 08:30:14;;;;;;;;;;;;;;;;;;5066923;28;19944;-60
2024/03/07 08:32:40;;;;;;;;;;;;;;;;;;5067391;28;19954;-57
2024/03/07 08:35:08;;;;;;;;;;;;;;;;;;5074408;28;19958;-59
2024/03/07 08:37:34;;;;;;;;;;;;;;;;;;5071983;28;19905;-59
2024/03/07 08:40:01;;;;;;;;;;;;;;;;;;5069466;28;20025;-59
2024/03/07 08:42:27;;;;;;;;;;;;;;;;;;5053311;28;19987;-60
2024/03/07 08:44:53;;;;;;;;;;;;;;;;;;5065796;28;19904;-59
2024/03/07 08:47:18;;;;;;;;;;;;;;;;;;5071738;28;20293;-59
2024/03/07 08:49:44;;;;;;;;;;;;;;;;;;5064351;28;19917;-60
2024/03/07 08:52:10;;;;;;;;;;;;;;;;;;5062054;28;19912;-60
2024/03/07 08:54:36;;;;;;;;;;;;;;;;;;5071703;28;19908;-59
2024/03/07 08:57:02;;;;;;;;;;;;;;;;;;5066260;28;19905;-59
2024/03/07 08:59:28;;;;;;;;;;;;;;;;;;5065904;28;19916;-60
2024/03/07 09:01:54;;;;;;;;;;;;;;;;;;5060447;28;19965;-60
2024/03/07 09:04:21;;;;;;;;;;;;;;;;;;5072839;28;19916;-59
2024/03/07 09:06:47;;;;;;;;;;;;;;;;;;5063821;28;20278;-60
2024/03/07 09:09:13;;;;;;;;;;;;;;;;;;5063016;28;19909;-59
2024/03/07 09:11:42;;;;;;;;;;;;;;;;;;5065971;28;20005;-59
2024/03/07 09:14:09;;;;;;;;;;;;;;;;;;5066071;28;20121;-59
2024/03/07 09:16:35;;;;;;;;;;;;;;;;;;5067397;28;19915;-59
2024/03/07 09:19:01;;;;;;;;;;;;;;;;;;5069909;28;19988;-59
2024/03/07 09:21:26;;;;;;;;;;;;;;;;;;5066694;28;19909;-60
2024/03/07 09:23:52;;;;;;;;;;;;;;;;;;5057741;28;19932;-57
2024/03/07 09:26:18;;;;;;;;;;;;;;;;;;5061843;28;19909;-60
2024/03/07 09:28:45;;;;;;;;;;;;;;;;;;5065363;28;19995;-61
2024/03/07 09:31:13;;;;;;;;;;;;;;;;;;5062837;28;19913;-60
2024/03/07 09:33:39;;;;;;;;;;;;;;;;;;5065998;28;19912;-60
2024/03/07 09:36:06;;;;;;;;;;;;;;;;;;5064443;28;19915;-59
2024/03/07 09:38:32;;;;;;;;;;;;;;;;;;5061380;28;19986;-60
2024/03/07 09:40:58;;;;;;;;;;;;;;;;;;5062951;28;21514;-59
2024/03/07 09:43:24;;;;;;;;;;;;;;;;;;5065543;28;20015;-59
2024/03/07 09:45:50;;;;;;;;;;;;;;;;;;5064014;28;19963;-61
2024/03/07 09:48:17;;;;;;;;;;;;;;;;;;5062600;28;19916;-59
2024/03/07 09:50:43;;;;;;;;;;;;;;;;;;5063897;28;19912;-61
2024/03/07 09:53:09;;;;;;;;;;;;;;;;;;5066909;28;19962;-60
2024/03/07 09:55:35;;;;;;;;;;;;;;;;;;5064554;28;19961;-60
2024/03/07 09:58:01;;;;;;;;;;;;;;;;;;5063664;28;19954;-60
2024/03/07 10:00:27;;;;;;;;;;;;;;;;;;5064520;28;20332;-59
2024/03/07 10:02:53;;;;;;;;;;;;;;;;;;5065252;28;19912;-60
2024/03/07 10:05:19;;;;;;;;;;;;;;;;;;5062493;28;19916;-57
2024/03/07 10:07:45;;;;;;;;;;;;;;;;;;5063978;28;19953;-59
2024/03/07 10:10:11;;;;;;;;;;;;;;;;;;5062718;28;19908;-57
2024/03/07 10:12:37;;;;;;;;;;;;;;;;;;5062424;28;19909;-59
2024/03/07 10:15:05;;;;;;;;;;;;;;;;;;5064022;28;20014;-60
2024/03/07 10:17:31;;;;;;;;;;;;;;;;;;5063679;28;19915;-60
2024/03/07 10:19:57;;;;;;;;;;;;;;;;;;5060707;28;19912;-60
2024/03/07 10:22:22;;;;;;;;;;;;;;;;;;5059778;28;19948;-60
2024/03/07 10:24:48;;;;;;;;;;;;;;;;;;5065711;28;19967;-61
2024/03/07 10:27:14;;;;;;;;;;;;;;;;;;5061758;28;19917;-58
2024/03/07 10:29:40;;;;;;;;;;;;;;;;;;5064499;28;19996;-60
2024/03/07 10:32:06;;;;;;;;;;;;;;;;;;5062967;28;20461;-60
2024/03/07 10:34:34;;;;;;;;;;;;;;;;;;5064614;28;19916;-60
2024/03/07 10:37:03;;;;;;;;;;;;;;;;;;5059659;28;19916;-61
2024/03/07 10:39:30;;;;;;;;;;;;;;;;;;5063283;28;20010;-61
2024/03/07 10:41:57;;;;;;;;;;;;;;;;;;5059360;28;19955;-60
2024/03/07 10:44:23;;;;;;;;;;;;;;;;;;5062477;28;19908;-57
2024/03/07 10:46:49;;;;;;;;;;;;;;;;;;5058119;28;19917;-61
2024/03/07 10:49:15;;;;;;;;;;;;;;;;;;5061200;28;19908;-61
2024/03/07 10:51:45;;;;;;;;;;;;;;;;;;5065504;28;19912;-60
2024/03/07 10:54:12;;;;;;;;;;;;;;;;;;5070886;28;19923;-60
2024/03/07 10:56:40;;;;;;;;;;;;;;;;;;5050867;28;19908;-59
2024/03/07 10:59:07;;;;;;;;;;;;;;;;;;5067280;28;20579;-59
2024/03/07 11:01:35;;;;;;;;;;;;;;;;;;5066118;28;20297;-59
2024/03/07 11:04:05;;;;;;;;;;;;;;;;;;5047061;28;19908;-59
2024/03/07 11:06:33;;;;;;;;;;;;;;;;;;5067977;28;19936;-60
2024/03/07 11:08:59;;;;;;;;;;;;;;;;;;5071138;28;19913;-60
2024/03/07 11:11:26;;;;;;;;;;;;;;;;;;5069364;28;20390;-60
2024/03/07 11:13:54;;;;;;;;;;;;;;;;;;5074493;28;19912;-60
2024/03/07 11:16:20;;;;;;;;;;;;;;;;;;5065017;28;19916;-60
2024/03/07 11:18:46;;;;;;;;;;;;;;;;;;5067827;28;19908;-59
2024/03/07 11:21:13;;;;;;;;;;;;;;;;;;5066571;28;20035;-61
2024/03/07 11:23:41;;;;;;;;;;;;;;;;;;5067161;28;19970;-61
2024/03/07 11:26:10;;;;;;;;;;;;;;;;;;5065340;28;19918;-60
2024/03/07 11:28:39;;;;;;;;;;;;;;;;;;5067252;28;20393;-61
2024/03/07 11:31:04;;;;;;;;;;;;;;;;;;5065890;28;19916;-59
2024/03/07 11:33:30;;;;;;;;;;;;;;;;;;5068467;28;19923;-61
2024/03/07 11:35:58;;;;;;;;;;;;;;;;;;5069844;28;19920;-61
2024/03/07 11:38:24;;;;;;;;;;;;;;;;;;5069997;28;20393;-60
2024/03/07 11:40:50;;;;;;;;;;;;;;;;;;5071166;28;19912;-62
2024/03/07 11:43:16;;;;;;;;;;;;;;;;;;5070662;28;20019;-60
2024/03/07 11:45:45;;;;;;;;;;;;;;;;;;5070711;28;19996;-61
2024/03/07 11:48:10;;;;;;;;;;;;;;;;;;5067216;28;19908;-59
2024/03/07 11:50:36;;;;;;;;;;;;;;;;;;5064707;28;19931;-60
2024/03/07 11:53:02;;;;;;;;;;;;;;;;;;5066757;28;19993;-60
2024/03/07 11:55:28;;;;;;;;;;;;;;;;;;5066236;28;20327;-59
2024/03/07 11:57:54;;;;;;;;;;;;;;;;;;5065057;28;19927;-61
2024/03/07 12:00:20;;;;;;;;;;;;;;;;;;5066897;28;19931;-60
2024/03/07 12:02:48;;;;;;;;;;;;;;;;;;5067715;28;19908;-59
2024/03/07 12:05:16;;;;;;;;;;;;;;;;;;5071721;28;19912;-59
2024/03/07 12:07:43;;;;;;;;;;;;;;;;;;5069782;28;19908;-59
2024/03/07 12:10:08;;;;;;;;;;;;;;;;;;5067842;28;20003;-58
2024/03/07 12:12:38;;;;;;;;;;;;;;;;;;5069861;28;20007;-61
2024/03/07 12:15:09;;;;;;;;;;;;;;;;;;5070518;28;19923;-57
2024/03/07 12:17:35;;;;;;;;;;;;;;;;;;5068307;28;19908;-58
2024/03/07 12:20:18;;;;;;;;;;;;;;;;;;5070939;28;19913;-60
2024/03/07 12:22:45;;;;;;;;;;;;;;;;;;5071916;28;19920;-58
2024/03/07 12:25:13;;;;;;;;;;;;;;;;;;5067540;28;19912;-60
2024/03/07 12:27:39;;;;;;;;;;;;;;;;;;5068543;28;19916;-61
2024/03/07 12:30:16;;;;;;;;;;;;;;;;;;5070989;28;19909;-60
2024/03/07 12:32:42;;;;;;;;;;;;;;;;;;5070587;28;19912;-59
2024/03/07 12:35:12;;;;;;;;;;;;;;;;;;5070359;28;19908;-59
2024/03/07 12:37:38;;;;;;;;;;;;;;;;;;5068537;28;20236;-59
2024/03/07 12:40:05;;;;;;;;;;;;;;;;;;5069850;28;19973;-61
2024/03/07 12:42:31;;;;;;;;;;;;;;;;;;5071631;28;20357;-59
2024/03/07 12:44:59;;;;;;;;;;;;;;;;;;5068950;28;19909;-59
2024/03/07 12:47:25;;;;;;;;;;;;;;;;;;5066823;28;20547;-57
2024/03/07 12:49:51;;;;;;;;;;;;;;;;;;5067726;28;19912;-60
2024/03/07 12:52:17;;;;;;;;;;;;;;;;;;5062593;28;19939;-59
2024/03/07 12:54:43;;;;;;;;;;;;;;;;;;5068902;28;20405;-60
2024/03/07 12:57:10;;;;;;;;;;;;;;;;;;5069927;28;19991;-61
2024/03/07 12:59:42;;;;;;;;;;;;;;;;;;5072694;28;20377;-60
2024/03/07 13:02:08;;;;;;;;;;;;;;;;;;5066518;28;19935;-59
2024/03/07 13:04:34;;;;;;;;;;;;;;;;;;5068983;28;20362;-59
2024/03/07 13:07:03;;;;;;;;;;;;;;;;;;5070514;28;20639;-59
2024/03/07 13:09:30;;;;;;;;;;;;;;;;;;5068799;28;19943;-58
2024/03/07 13:11:56;;;;;;;;;;;;;;;;;;5068130;28;19959;-58
2024/03/07 13:14:22;;;;;;;;;;;;;;;;;;5069708;28;19955;-59
2024/03/07 13:16:49;;;;;;;;;;;;;;;;;;5063271;28;19908;-57
2024/03/07 13:19:20;;;;;;;;;;;;;;;;;;5069449;28;20035;-60
2024/03/07 13:21:46;;;;;;;;;;;;;;;;;;5064568;28;19907;-59
2024/03/07 13:24:12;;;;;;;;;;;;;;;;;;5067484;28;19923;-60
2024/03/07 13:26:38;;;;;;;;;;;;;;;;;;5067897;28;20556;-60
2024/03/07 13:29:04;;;;;;;;;;;;;;;;;;5070465;28;19912;-60
2024/03/07 13:31:30;;;;;;;;;;;;;;;;;;5069124;28;19915;-60
2024/03/07 13:33:56;;;;;;;;;;;;;;;;;;5062769;28;19923;-61
2024/03/07 13:36:29;;;;;;;;;;;;;;;;;;5067948;27;19939;-62
2024/03/07 13:38:57;;;;;;;;;;;;;;;;;;5038810;28;19925;-60
2024/03/07 13:41:25;;;;;;;;;;;;;;;;;;5034206;28;19917;-61
2024/03/07 13:43:51;;;;;;;;;;;;;;;;;;5029378;28;19914;-60
2024/03/07 13:46:17;;;;;;;;;;;;;;;;;;5032166;28;19921;-59
2024/03/07 13:48:43;;;;;;;;;;;;;;;;;;5028941;28;20302;-60
2024/03/07 13:51:09;;;;;;;;;;;;;;;;;;5034004;28;19917;-59
2024/03/07 13:53:47;;;;;;;;;;;;;;;;;;5031764;28;19913;-60
2024/03/07 13:56:13;;;;;;;;;;;;;;;;;;5033244;28;19921;-61
2024/03/07 13:58:38;;;;;;;;;;;;;;;;;;5032736;28;19958;-60
2024/03/07 14:01:04;;;;;;;;;;;;;;;;;;5031364;28;19927;-60
2024/03/07 14:03:30;;;;;;;;;;;;;;;;;;5029477;28;19913;-61
2024/03/07 14:05:58;;;;;;;;;;;;;;;;;;5030154;28;20658;-60
2024/03/07 14:08:24;;;;;;;;;;;;;;;;;;5028153;28;19992;-60
2024/03/07 14:10:52;;;;;;;;;;;;;;;;;;5016093;28;20402;-59
2024/03/07 14:13:18;;;;;;;;;;;;;;;;;;5011235;28;19928;-61
2024/03/07 14:15:44;;;;;;;;;;;;;;;;;;5020708;28;19929;-59
2024/03/07 14:18:10;;;;;;;;;;;;;;;;;;5022333;28;19947;-59
2024/03/07 14:20:35;;;;;;;;;;;;;;;;;;5021047;28;19923;-59
2024/03/07 14:23:05;;;;;;;;;;;;;;;;;;5017215;28;20319;-59
2024/03/07 14:25:32;;;;;;;;;;;;;;;;;;5014335;28;19997;-59
2024/03/07 14:27:58;;;;;;;;;;;;;;;;;;5012492;28;19941;-59
2024/03/07 14:30:25;;;;;;;;;;;;;;;;;;5013491;28;19921;-60
2024/03/07 14:32:54;;;;;;;;;;;;;;;;;;5013046;28;19921;-61
2024/03/07 14:35:20;;;;;;;;;;;;;;;;;;5015840;28;20375;-59
2024/03/07 14:37:46;;;;;;;;;;;;;;;;;;5016777;28;19929;-58
2024/03/07 14:40:13;;;;;;;;;;;;;;;;;;5010503;28;19953;-60
2024/03/07 14:42:41;;;;;;;;;;;;;;;;;;5015302;28;19980;-59
2024/03/07 14:45:08;;;;;;;;;;;;;;;;;;5018760;28;19921;-61
2024/03/07 14:47:34;;;;;;;;;;;;;;;;;;5008436;28;19918;-61
2024/03/07 14:49:59;;;;;;;;;;;;;;;;;;5004841;28;20272;-60
2024/03/07 14:52:25;;;;;;;;;;;;;;;;;;5012966;28;19968;-60
2024/03/07 14:54:51;;;;;;;;;;;;;;;;;;5014073;28;19921;-59
2024/03/07 14:57:17;;;;;;;;;;;;;;;;;;5003504;28;19922;-58
2024/03/07 14:59:44;;;;;;;;;;;;;;;;;;5012481;28;19971;-60
2024/03/07 15:02:10;;;;;;;;;;;;;;;;;;5004266;28;19928;-60
2024/03/07 15:04:36;;;;;;;;;;;;;;;;;;5004314;28;19913;-60
2024/03/07 15:07:02;;;;;;;;;;;;;;;;;;5004668;28;20386;-58
2024/03/07 15:09:33;;;;;;;;;;;;;;;;;;5007011;28;19917;-59
2024/03/07 15:11:59;;;;;;;;;;;;;;;;;;5007141;28;19960;-60
2024/03/07 15:14:25;;;;;;;;;;;;;;;;;;5014479;28;19983;-59
2024/03/07 15:16:51;;;;;;;;;;;;;;;;;;5006247;28;20315;-59
2024/03/07 15:19:18;;;;;;;;;;;;;;;;;;5005799;28;19922;-59
2024/03/07 15:21:44;;;;;;;;;;;;;;;;;;5015951;28;19920;-61
2024/03/07 15:24:11;;;;;;;;;;;;;;;;;;5006865;28;19914;-61
2024/03/07 15:26:38;;;;;;;;;;;;;;;;;;5004095;28;20038;-61
2024/03/07 15:29:04;;;;;;;;;;;;;;;;;;5005192;28;21761;-60
2024/03/07 15:31:30;;;;;;;;;;;;;;;;;;5006632;28;20053;-60
2024/03/07 15:33:56;;;;;;;;;;;;;;;;;;5011788;28;20011;-59
2024/03/07 15:36:22;;;;;;;;;;;;;;;;;;5013345;28;19981;-59
2024/03/07 15:38:48;;;;;;;;;;;;;;;;;;5012700;28;19913;-57
2024/03/07 15:41:14;;;;;;;;;;;;;;;;;;5008553;28;19940;-60
2024/03/07 15:43:43;;;;;;;;;;;;;;;;;;5004853;28;19918;-59
2024/03/07 15:46:10;;;;;;;;;;;;;;;;;;5004560;28;19913;-60
2024/03/07 15:48:36;;;;;;;;;;;;;;;;;;5010014;28;20008;-60
2024/03/07 15:51:03;;;;;;;;;;;;;;;;;;5012647;28;19983;-58
2024/03/07 15:53:29;;;;;;;;;;;;;;;;;;5009391;28;19913;-58
2024/03/07 15:55:55;;;;;;;;;;;;;;;;;;5012823;28;19925;-57
2024/03/07 15:58:23;;;;;;;;;;;;;;;;;;5007809;28;19928;-58
2024/03/07 16:00:49;;;;;;;;;;;;;;;;;;5012388;28;19971;-59
2024/03/07 16:03:15;;;;;;;;;;;;;;;;;;5009752;28;19958;-57
2024/03/07 16:05:41;;;;;;;;;;;;;;;;;;5013235;28;19939;-58
2024/03/07 16:08:07;;;;;;;;;;;;;;;;;;5013042;28;20333;-58
2024/03/07 16:10:33;;;;;;;;;;;;;;;;;;5012230;28;19917;-58
2024/03/07 16:12:59;;;;;;;;;;;;;;;;;;5012074;28;19943;-58
2024/03/07 16:15:26;;;;;;;;;;;;;;;;;;5007415;28;19924;-60
2024/03/07 16:17:56;;;;;;;;;;;;;;;;;;5010839;28;20004;-59
2024/03/07 16:20:21;;;;;;;;;;;;;;;;;;5017953;28;19925;-60
2024/03/07 16:22:50;;;;;;;;;;;;;;;;;;5012598;28;20390;-59
2024/03/07 16:25:16;;;;;;;;;;;;;;;;;;5009035;28;20086;-56
2024/03/07 16:27:42;;;;;;;;;;;;;;;;;;5010412;28;19949;-60
2024/03/07 16:30:11;;;;;;;;;;;;;;;;;;5015410;28;19941;-59
2024/03/07 16:32:37;;;;;;;;;;;;;;;;;;5007473;28;20306;-59
2024/03/07 16:35:08;;;;;;;;;;;;;;;;;;5012633;28;20000;-59
2024/03/07 16:37:34;;;;;;;;;;;;;;;;;;5013350;28;19917;-58
2024/03/07 16:40:00;;;;;;;;;;;;;;;;;;5011280;28;19912;-60
2024/03/07 16:42:27;;;;;;;;;;;;;;;;;;5012236;28;20334;-59